sensor_id;sensor_type;location;lat;lon;timestamp;temperature;humidity
47350;DHT22;33088;51.982;5.872;2022-11-04T00:01:52;10.70;99.90
47350;DHT22;33088;51.982;5.872;2022-11-04T00:04:20;10.80;99.90
47350;DHT22;33088;51.982;5.872;2022-11-04T00:06:46;10.80;99.90
47350;DHT22;33088;51.982;5.872;2022-11-04T00:09:17;10.80;99.90
47350;DHT22;33088;51.982;5.872;2022-11-04T00:11:44;10.70;99.90
47350;DHT22;33088;51.982;5.872;2022-11-04T00:14:29;10.70;99.90
47350;DHT22;33088;51.982;5.872;2022-11-04T00:16:56;10.70;99.90
47350;DHT22;33088;51.982;5.872;2022-11-04T00:19:40;10.70;99.90
47350;DHT22;33088;51.982;5.872;2022-11-04T00:22:25;10.70;99.90
47350;DHT22;33088;51.982;5.872;2022-11-04T00:25:09;10.70;99.90
47350;DHT22;33088;51.982;5.872;2022-11-04T00:28:14;10.70;99.90
47350;DHT22;33088;51.982;5.872;2022-11-04T00:31:00;10.70;99.90
47350;DHT22;33088;51.982;5.872;2022-11-04T00:33:46;10.70;99.90
47350;DHT22;33088;51.982;5.872;2022-11-04T00:36:13;10.70;99.90
47350;DHT22;33088;51.982;5.872;2022-11-04T00:38:38;10.60;99.90
47350;DHT22;33088;51.982;5.872;2022-11-04T00:41:04;10.80;99.90
47350;DHT22;33088;51.982;5.872;2022-11-04T00:43:51;10.60;99.90
47350;DHT22;33088;51.982;5.872;2022-11-04T00:46:17;10.60;99.90
47350;DHT22;33088;51.982;5.872;2022-11-04T00:48:43;10.60;99.90
47350;DHT22;33088;51.982;5.872;2022-11-04T00:51:08;10.60;99.90
47350;DHT22;33088;51.982;5.872;2022-11-04T00:53:34;10.50;99.90
47350;DHT22;33088;51.982;5.872;2022-11-04T00:55:59;10.50;99.90
47350;DHT22;33088;51.982;5.872;2022-11-04T00:58:27;10.40;99.90
47350;DHT22;33088;51.982;5.872;2022-11-04T01:00:53;10.30;99.90
47350;DHT22;33088;51.982;5.872;2022-11-04T01:03:20;10.20;99.90
47350;DHT22;33088;51.982;5.872;2022-11-04T01:05:45;10.10;99.90
47350;DHT22;33088;51.982;5.872;2022-11-04T01:08:11;10.20;99.90
47350;DHT22;33088;51.982;5.872;2022-11-04T01:10:36;10.10;99.90
47350;DHT22;33088;51.982;5.872;2022-11-04T01:13:09;10.00;99.90
47350;DHT22;33088;51.982;5.872;2022-11-04T01:15:36;10.00;99.90
47350;DHT22;33088;51.982;5.872;2022-11-04T01:18:02;10.00;99.90
47350;DHT22;33088;51.982;5.872;2022-11-04T01:20:28;10.00;99.90
47350;DHT22;33088;51.982;5.872;2022-11-04T01:22:54;9.80;99.90
47350;DHT22;33088;51.982;5.872;2022-11-04T01:25:19;9.70;99.90
47350;DHT22;33088;51.982;5.872;2022-11-04T01:27:45;9.70;99.90
47350;DHT22;33088;51.982;5.872;2022-11-04T01:30:11;9.70;99.90
47350;DHT22;33088;51.982;5.872;2022-11-04T01:32:37;9.70;99.90
47350;DHT22;33088;51.982;5.872;2022-11-04T01:35:03;9.60;99.90
47350;DHT22;33088;51.982;5.872;2022-11-04T01:37:28;9.60;99.90
47350;DHT22;33088;51.982;5.872;2022-11-04T01:39:54;9.60;99.90
47350;DHT22;33088;51.982;5.872;2022-11-04T01:42:21;9.60;99.90
47350;DHT22;33088;51.982;5.872;2022-11-04T01:47:21;9.50;99.90
47350;DHT22;33088;51.982;5.872;2022-11-04T01:50:13;9.70;99.90
47350;DHT22;33088;51.982;5.872;2022-11-04T01:52:51;9.60;99.90
47350;DHT22;33088;51.982;5.872;2022-11-04T01:55:32;9.60;99.90
47350;DHT22;33088;51.982;5.872;2022-11-04T01:58:01;9.60;99.90
47350;DHT22;33088;51.982;5.872;2022-11-04T02:00:28;9.80;99.90
47350;DHT22;33088;51.982;5.872;2022-11-04T02:03:03;9.60;99.90
47350;DHT22;33088;51.982;5.872;2022-11-04T02:05:31;9.60;99.90
47350;DHT22;33088;51.982;5.872;2022-11-04T02:07:58;9.60;99.90
47350;DHT22;33088;51.982;5.872;2022-11-04T02:10:28;9.50;99.90
47350;DHT22;33088;51.982;5.872;2022-11-04T02:12:56;9.80;99.90
47350;DHT22;33088;51.982;5.872;2022-11-04T02:24:46;9.70;99.90
47350;DHT22;33088;51.982;5.872;2022-11-04T02:30:20;9.70;99.90
47350;DHT22;33088;51.982;5.872;2022-11-04T02:35:24;9.70;99.90
47350;DHT22;33088;51.982;5.872;2022-11-04T02:46:43;9.80;99.90
47350;DHT22;33088;51.982;5.872;2022-11-04T02:49:13;9.80;99.90
47350;DHT22;33088;51.982;5.872;2022-11-04T02:52:18;9.80;99.90
47350;DHT22;33088;51.982;5.872;2022-11-04T02:54:53;9.80;99.90
47350;DHT22;33088;51.982;5.872;2022-11-04T02:57:23;9.70;99.90
47350;DHT22;33088;51.982;5.872;2022-11-04T03:00:04;9.80;99.90
47350;DHT22;33088;51.982;5.872;2022-11-04T03:03:04;9.80;99.90
47350;DHT22;33088;51.982;5.872;2022-11-04T03:05:33;9.80;99.90
47350;DHT22;33088;51.982;5.872;2022-11-04T03:08:04;10.00;99.90
47350;DHT22;33088;51.982;5.872;2022-11-04T03:10:37;9.80;99.90
47350;DHT22;33088;51.982;5.872;2022-11-04T03:13:18;9.80;99.90
47350;DHT22;33088;51.982;5.872;2022-11-04T03:15:52;9.70;99.90
47350;DHT22;33088;51.982;5.872;2022-11-04T03:18:53;9.80;99.90
47350;DHT22;33088;51.982;5.872;2022-11-04T03:21:23;9.60;99.90
47350;DHT22;33088;51.982;5.872;2022-11-04T03:23:50;9.80;99.90
47350;DHT22;33088;51.982;5.872;2022-11-04T03:26:32;9.80;99.90
47350;DHT22;33088;51.982;5.872;2022-11-04T03:29:10;9.90;99.90
47350;DHT22;33088;51.982;5.872;2022-11-04T03:34:46;9.80;99.90
47350;DHT22;33088;51.982;5.872;2022-11-04T03:37:12;9.80;99.90
47350;DHT22;33088;51.982;5.872;2022-11-04T03:39:38;9.80;99.90
47350;DHT22;33088;51.982;5.872;2022-11-04T03:42:08;10.00;99.90
47350;DHT22;33088;51.982;5.872;2022-11-04T03:44:52;9.80;99.90
47350;DHT22;33088;51.982;5.872;2022-11-04T03:47:20;9.90;99.90
47350;DHT22;33088;51.982;5.872;2022-11-04T03:49:47;9.80;99.90
47350;DHT22;33088;51.982;5.872;2022-11-04T03:52:15;9.70;99.90
47350;DHT22;33088;51.982;5.872;2022-11-04T03:54:42;9.80;99.90
47350;DHT22;33088;51.982;5.872;2022-11-04T04:00:04;9.70;99.90
47350;DHT22;33088;51.982;5.872;2022-11-04T04:02:59;9.60;99.90
47350;DHT22;33088;51.982;5.872;2022-11-04T04:05:29;9.70;99.90
47350;DHT22;33088;51.982;5.872;2022-11-04T04:08:33;9.60;99.90
47350;DHT22;33088;51.982;5.872;2022-11-04T04:11:16;9.60;99.90
47350;DHT22;33088;51.982;5.872;2022-11-04T04:13:54;9.50;99.90
47350;DHT22;33088;51.982;5.872;2022-11-04T04:16:29;9.50;99.90
47350;DHT22;33088;51.982;5.872;2022-11-04T04:22:08;9.50;99.90
47350;DHT22;33088;51.982;5.872;2022-11-04T04:24:39;9.50;99.90
47350;DHT22;33088;51.982;5.872;2022-11-04T04:27:25;9.50;99.90
47350;DHT22;33088;51.982;5.872;2022-11-04T04:30:00;9.50;99.90
47350;DHT22;33088;51.982;5.872;2022-11-04T04:32:29;9.40;99.90
47350;DHT22;33088;51.982;5.872;2022-11-04T04:34:57;9.60;99.90
47350;DHT22;33088;51.982;5.872;2022-11-04T04:37:42;9.40;99.90
47350;DHT22;33088;51.982;5.872;2022-11-04T04:40:12;9.30;99.90
47350;DHT22;33088;51.982;5.872;2022-11-04T04:42:58;9.30;99.90
47350;DHT22;33088;51.982;5.872;2022-11-04T04:45:51;9.40;99.90
47350;DHT22;33088;51.982;5.872;2022-11-04T04:48:17;9.30;99.90
47350;DHT22;33088;51.982;5.872;2022-11-04T04:50:50;9.40;99.90
47350;DHT22;33088;51.982;5.872;2022-11-04T04:53:17;9.30;99.90
47350;DHT22;33088;51.982;5.872;2022-11-04T04:55:42;9.30;99.90
47350;DHT22;33088;51.982;5.872;2022-11-04T04:58:08;9.30;99.90
47350;DHT22;33088;51.982;5.872;2022-11-04T05:00:34;9.30;99.90
47350;DHT22;33088;51.982;5.872;2022-11-04T05:03:00;9.20;99.90
47350;DHT22;33088;51.982;5.872;2022-11-04T05:05:25;9.20;99.90
47350;DHT22;33088;51.982;5.872;2022-11-04T05:07:51;9.20;99.90
47350;DHT22;33088;51.982;5.872;2022-11-04T05:10:17;9.00;99.90
47350;DHT22;33088;51.982;5.872;2022-11-04T05:12:42;9.00;99.90
47350;DHT22;33088;51.982;5.872;2022-11-04T05:15:28;8.90;99.90
47350;DHT22;33088;51.982;5.872;2022-11-04T05:17:58;8.90;99.90
47350;DHT22;33088;51.982;5.872;2022-11-04T05:20:25;8.90;99.90
47350;DHT22;33088;51.982;5.872;2022-11-04T05:22:51;8.90;99.90
47350;DHT22;33088;51.982;5.872;2022-11-04T05:25:18;8.90;99.90
47350;DHT22;33088;51.982;5.872;2022-11-04T05:27:44;8.90;99.90
47350;DHT22;33088;51.982;5.872;2022-11-04T05:30:10;8.60;99.90
47350;DHT22;33088;51.982;5.872;2022-11-04T05:32:35;8.50;99.90
47350;DHT22;33088;51.982;5.872;2022-11-04T05:35:01;8.50;99.90
47350;DHT22;33088;51.982;5.872;2022-11-04T05:37:27;8.40;99.90
47350;DHT22;33088;51.982;5.872;2022-11-04T05:39:53;8.40;99.90
47350;DHT22;33088;51.982;5.872;2022-11-04T05:42:19;8.40;99.90
47350;DHT22;33088;51.982;5.872;2022-11-04T05:44:44;8.50;99.90
47350;DHT22;33088;51.982;5.872;2022-11-04T05:47:10;8.60;99.90
47350;DHT22;33088;51.982;5.872;2022-11-04T05:49:36;8.60;99.90
47350;DHT22;33088;51.982;5.872;2022-11-04T05:52:01;8.60;99.90
47350;DHT22;33088;51.982;5.872;2022-11-04T05:54:27;8.70;99.90
47350;DHT22;33088;51.982;5.872;2022-11-04T05:56:53;8.60;99.90
47350;DHT22;33088;51.982;5.872;2022-11-04T05:59:18;8.60;99.90
47350;DHT22;33088;51.982;5.872;2022-11-04T06:01:44;8.60;99.90
47350;DHT22;33088;51.982;5.872;2022-11-04T06:04:17;8.50;99.90
47350;DHT22;33088;51.982;5.872;2022-11-04T06:06:44;8.60;99.90
47350;DHT22;33088;51.982;5.872;2022-11-04T06:09:10;8.60;99.90
47350;DHT22;33088;51.982;5.872;2022-11-04T06:11:36;8.60;99.90
47350;DHT22;33088;51.982;5.872;2022-11-04T06:14:02;8.60;99.90
47350;DHT22;33088;51.982;5.872;2022-11-04T06:16:28;8.70;99.90
47350;DHT22;33088;51.982;5.872;2022-11-04T06:18:53;8.70;99.90
47350;DHT22;33088;51.982;5.872;2022-11-04T06:21:21;8.80;99.90
47350;DHT22;33088;51.982;5.872;2022-11-04T06:23:50;8.80;99.90
47350;DHT22;33088;51.982;5.872;2022-11-04T06:26:15;8.80;99.90
47350;DHT22;33088;51.982;5.872;2022-11-04T06:28:41;8.80;99.90
47350;DHT22;33088;51.982;5.872;2022-11-04T06:31:10;8.80;99.90
47350;DHT22;33088;51.982;5.872;2022-11-04T06:33:36;8.70;99.90
47350;DHT22;33088;51.982;5.872;2022-11-04T06:36:04;8.70;99.90
47350;DHT22;33088;51.982;5.872;2022-11-04T06:38:31;8.60;99.90
47350;DHT22;33088;51.982;5.872;2022-11-04T06:40:57;8.60;99.90
47350;DHT22;33088;51.982;5.872;2022-11-04T06:43:23;8.60;99.90
47350;DHT22;33088;51.982;5.872;2022-11-04T06:46:00;8.60;99.90
47350;DHT22;33088;51.982;5.872;2022-11-04T06:48:26;8.50;99.90
47350;DHT22;33088;51.982;5.872;2022-11-04T06:50:55;8.70;99.90
47350;DHT22;33088;51.982;5.872;2022-11-04T06:53:21;8.50;99.90
47350;DHT22;33088;51.982;5.872;2022-11-04T06:55:47;8.40;99.90
47350;DHT22;33088;51.982;5.872;2022-11-04T06:58:13;8.40;99.90
47350;DHT22;33088;51.982;5.872;2022-11-04T07:00:38;8.30;99.90
47350;DHT22;33088;51.982;5.872;2022-11-04T07:03:04;8.30;99.90
47350;DHT22;33088;51.982;5.872;2022-11-04T07:05:32;8.20;99.90
47350;DHT22;33088;51.982;5.872;2022-11-04T07:07:58;8.20;99.90
47350;DHT22;33088;51.982;5.872;2022-11-04T07:10:23;8.10;99.90
47350;DHT22;33088;51.982;5.872;2022-11-04T07:12:49;8.20;99.90
47350;DHT22;33088;51.982;5.872;2022-11-04T07:15:15;8.10;99.90
47350;DHT22;33088;51.982;5.872;2022-11-04T07:17:40;8.00;99.90
47350;DHT22;33088;51.982;5.872;2022-11-04T07:20:06;8.00;99.90
47350;DHT22;33088;51.982;5.872;2022-11-04T07:22:32;8.00;99.90
47350;DHT22;33088;51.982;5.872;2022-11-04T07:24:58;7.90;99.90
47350;DHT22;33088;51.982;5.872;2022-11-04T07:27:23;8.00;99.90
47350;DHT22;33088;51.982;5.872;2022-11-04T07:29:49;8.00;99.90
47350;DHT22;33088;51.982;5.872;2022-11-04T07:32:15;8.00;99.90
47350;DHT22;33088;51.982;5.872;2022-11-04T07:34:41;8.10;99.90
47350;DHT22;33088;51.982;5.872;2022-11-04T07:37:06;8.10;99.90
47350;DHT22;33088;51.982;5.872;2022-11-04T07:39:32;8.10;99.90
47350;DHT22;33088;51.982;5.872;2022-11-04T07:41:58;8.20;99.90
47350;DHT22;33088;51.982;5.872;2022-11-04T07:44:23;8.20;99.90
47350;DHT22;33088;51.982;5.872;2022-11-04T07:46:49;8.20;99.90
47350;DHT22;33088;51.982;5.872;2022-11-04T07:49:15;8.30;99.90
47350;DHT22;33088;51.982;5.872;2022-11-04T07:51:41;8.40;99.90
47350;DHT22;33088;51.982;5.872;2022-11-04T07:54:07;8.40;99.90
47350;DHT22;33088;51.982;5.872;2022-11-04T07:56:32;8.40;99.90
47350;DHT22;33088;51.982;5.872;2022-11-04T07:58:58;8.50;99.90
47350;DHT22;33088;51.982;5.872;2022-11-04T08:01:24;8.50;99.90
47350;DHT22;33088;51.982;5.872;2022-11-04T08:03:50;8.50;99.90
47350;DHT22;33088;51.982;5.872;2022-11-04T08:06:18;8.60;99.90
47350;DHT22;33088;51.982;5.872;2022-11-04T08:08:45;8.70;99.90
47350;DHT22;33088;51.982;5.872;2022-11-04T08:11:15;8.70;99.90
47350;DHT22;33088;51.982;5.872;2022-11-04T08:13:41;8.70;99.90
47350;DHT22;33088;51.982;5.872;2022-11-04T08:16:11;8.70;99.90
47350;DHT22;33088;51.982;5.872;2022-11-04T08:18:38;8.90;99.90
47350;DHT22;33088;51.982;5.872;2022-11-04T08:21:05;8.80;99.90
47350;DHT22;33088;51.982;5.872;2022-11-04T08:23:31;8.90;99.90
47350;DHT22;33088;51.982;5.872;2022-11-04T08:25:57;8.90;99.90
47350;DHT22;33088;51.982;5.872;2022-11-04T08:28:24;9.00;99.90
47350;DHT22;33088;51.982;5.872;2022-11-04T08:30:59;9.00;99.90
47350;DHT22;33088;51.982;5.872;2022-11-04T08:33:27;9.10;99.90
47350;DHT22;33088;51.982;5.872;2022-11-04T08:35:55;9.20;99.90
47350;DHT22;33088;51.982;5.872;2022-11-04T08:38:21;9.30;99.90
47350;DHT22;33088;51.982;5.872;2022-11-04T08:40:47;9.30;99.90
47350;DHT22;33088;51.982;5.872;2022-11-04T08:43:12;9.50;99.90
47350;DHT22;33088;51.982;5.872;2022-11-04T08:45:43;9.30;99.90
47350;DHT22;33088;51.982;5.872;2022-11-04T08:48:10;9.30;99.90
47350;DHT22;33088;51.982;5.872;2022-11-04T08:50:36;9.30;99.90
47350;DHT22;33088;51.982;5.872;2022-11-04T08:53:03;9.40;99.90
47350;DHT22;33088;51.982;5.872;2022-11-04T08:55:29;9.40;99.90
47350;DHT22;33088;51.982;5.872;2022-11-04T08:57:56;9.40;99.90
47350;DHT22;33088;51.982;5.872;2022-11-04T09:00:22;9.40;99.90
47350;DHT22;33088;51.982;5.872;2022-11-04T09:02:48;9.40;99.90
47350;DHT22;33088;51.982;5.872;2022-11-04T09:05:14;9.40;99.90
47350;DHT22;33088;51.982;5.872;2022-11-04T09:07:40;9.40;99.90
47350;DHT22;33088;51.982;5.872;2022-11-04T09:10:06;9.40;99.90
47350;DHT22;33088;51.982;5.872;2022-11-04T09:12:32;9.50;99.90
47350;DHT22;33088;51.982;5.872;2022-11-04T09:14:58;9.60;99.90
47350;DHT22;33088;51.982;5.872;2022-11-04T09:17:23;9.70;99.90
47350;DHT22;33088;51.982;5.872;2022-11-04T09:19:49;9.90;99.90
47350;DHT22;33088;51.982;5.872;2022-11-04T09:22:16;9.80;99.90
47350;DHT22;33088;51.982;5.872;2022-11-04T09:24:42;9.90;99.90
47350;DHT22;33088;51.982;5.872;2022-11-04T09:27:09;10.00;99.90
47350;DHT22;33088;51.982;5.872;2022-11-04T09:29:34;10.00;99.90
47350;DHT22;33088;51.982;5.872;2022-11-04T09:32:02;10.10;99.90
47350;DHT22;33088;51.982;5.872;2022-11-04T09:34:28;10.10;99.90
47350;DHT22;33088;51.982;5.872;2022-11-04T09:36:55;10.10;99.90
47350;DHT22;33088;51.982;5.872;2022-11-04T09:39:22;10.10;99.90
47350;DHT22;33088;51.982;5.872;2022-11-04T09:46:59;10.30;99.90
47350;DHT22;33088;51.982;5.872;2022-11-04T09:49:34;10.30;99.90
47350;DHT22;33088;51.982;5.872;2022-11-04T09:52:02;10.40;99.90
47350;DHT22;33088;51.982;5.872;2022-11-04T09:54:37;10.40;99.90
47350;DHT22;33088;51.982;5.872;2022-11-04T09:57:14;10.40;99.90
47350;DHT22;33088;51.982;5.872;2022-11-04T09:59:41;10.40;99.90
47350;DHT22;33088;51.982;5.872;2022-11-04T10:05:06;10.50;99.90
47350;DHT22;33088;51.982;5.872;2022-11-04T10:21:08;10.80;99.90
47350;DHT22;33088;51.982;5.872;2022-11-04T10:23:49;10.90;99.90
47350;DHT22;33088;51.982;5.872;2022-11-04T10:26:38;11.10;99.90
47350;DHT22;33088;51.982;5.872;2022-11-04T10:29:19;11.00;99.90
47350;DHT22;33088;51.982;5.872;2022-11-04T10:31:47;11.00;99.90
47350;DHT22;33088;51.982;5.872;2022-11-04T10:34:33;11.00;99.90
47350;DHT22;33088;51.982;5.872;2022-11-04T10:37:01;11.10;99.90
47350;DHT22;33088;51.982;5.872;2022-11-04T10:39:33;11.10;99.90
47350;DHT22;33088;51.982;5.872;2022-11-04T10:42:00;11.00;99.90
47350;DHT22;33088;51.982;5.872;2022-11-04T10:44:34;11.10;99.90
47350;DHT22;33088;51.982;5.872;2022-11-04T10:52:21;11.00;99.90
47350;DHT22;33088;51.982;5.872;2022-11-04T10:54:49;11.20;99.90
47350;DHT22;33088;51.982;5.872;2022-11-04T10:57:24;11.00;99.90
47350;DHT22;33088;51.982;5.872;2022-11-04T10:59:59;11.10;99.90
47350;DHT22;33088;51.982;5.872;2022-11-04T11:02:46;11.20;99.90
47350;DHT22;33088;51.982;5.872;2022-11-04T11:07:49;11.10;99.90
47350;DHT22;33088;51.982;5.872;2022-11-04T11:10:19;11.10;99.90
47350;DHT22;33088;51.982;5.872;2022-11-04T11:13:00;11.10;99.90
47350;DHT22;33088;51.982;5.872;2022-11-04T11:15:34;11.10;99.90
47350;DHT22;33088;51.982;5.872;2022-11-04T11:20:33;11.30;99.90
47350;DHT22;33088;51.982;5.872;2022-11-04T11:23:02;11.30;99.90
47350;DHT22;33088;51.982;5.872;2022-11-04T11:25:37;11.30;99.90
47350;DHT22;33088;51.982;5.872;2022-11-04T11:28:11;11.40;99.90
47350;DHT22;33088;51.982;5.872;2022-11-04T11:33:19;11.30;99.90
47350;DHT22;33088;51.982;5.872;2022-11-04T11:35:50;11.30;99.90
47350;DHT22;33088;51.982;5.872;2022-11-04T11:38:28;11.40;99.90
47350;DHT22;33088;51.982;5.872;2022-11-04T11:41:12;11.50;99.90
47350;DHT22;33088;51.982;5.872;2022-11-04T11:43:42;11.40;99.90
47350;DHT22;33088;51.982;5.872;2022-11-04T11:46:09;11.50;99.90
47350;DHT22;33088;51.982;5.872;2022-11-04T11:48:41;11.40;99.90
47350;DHT22;33088;51.982;5.872;2022-11-04T11:51:16;11.60;99.90
47350;DHT22;33088;51.982;5.872;2022-11-04T11:54:07;11.60;99.90
47350;DHT22;33088;51.982;5.872;2022-11-04T11:56:38;11.80;99.90
47350;DHT22;33088;51.982;5.872;2022-11-04T11:59:16;11.90;99.90
47350;DHT22;33088;51.982;5.872;2022-11-04T12:01:49;12.00;99.90
47350;DHT22;33088;51.982;5.872;2022-11-04T12:04:16;12.10;99.90
47350;DHT22;33088;51.982;5.872;2022-11-04T12:07:06;12.20;99.90
47350;DHT22;33088;51.982;5.872;2022-11-04T12:09:52;12.30;99.90
47350;DHT22;33088;51.982;5.872;2022-11-04T12:15:20;12.30;99.90
47350;DHT22;33088;51.982;5.872;2022-11-04T12:23:30;12.00;99.90
47350;DHT22;33088;51.982;5.872;2022-11-04T12:26:07;12.10;99.90
47350;DHT22;33088;51.982;5.872;2022-11-04T12:37:30;12.10;99.90
47350;DHT22;33088;51.982;5.872;2022-11-04T12:43:12;12.10;99.90
47350;DHT22;33088;51.982;5.872;2022-11-04T12:49:25;12.20;99.90
47350;DHT22;33088;51.982;5.872;2022-11-04T12:51:30;12.20;99.90
47350;DHT22;33088;51.982;5.872;2022-11-04T12:57:21;12.20;99.90
47350;DHT22;33088;51.982;5.872;2022-11-04T13:00:11;12.10;99.90
47350;DHT22;33088;51.982;5.872;2022-11-04T13:03:01;12.30;99.90
47350;DHT22;33088;51.982;5.872;2022-11-04T13:08:22;12.10;99.90
47350;DHT22;33088;51.982;5.872;2022-11-04T13:11:05;12.10;99.90
47350;DHT22;33088;51.982;5.872;2022-11-04T13:14:02;12.10;99.90
47350;DHT22;33088;51.982;5.872;2022-11-04T13:16:35;12.10;99.90
47350;DHT22;33088;51.982;5.872;2022-11-04T13:19:04;12.10;99.90
47350;DHT22;33088;51.982;5.872;2022-11-04T13:21:35;12.10;99.90
47350;DHT22;33088;51.982;5.872;2022-11-04T13:24:06;12.20;99.90
47350;DHT22;33088;51.982;5.872;2022-11-04T13:26:36;12.20;99.90
47350;DHT22;33088;51.982;5.872;2022-11-04T13:29:12;12.20;99.90
47350;DHT22;33088;51.982;5.872;2022-11-04T13:31:59;12.30;99.90
47350;DHT22;33088;51.982;5.872;2022-11-04T13:42:32;12.30;99.90
47350;DHT22;33088;51.982;5.872;2022-11-04T13:45:10;12.40;99.90
47350;DHT22;33088;51.982;5.872;2022-11-04T13:47:50;12.10;99.90
47350;DHT22;33088;51.982;5.872;2022-11-04T13:50:28;12.00;99.90
47350;DHT22;33088;51.982;5.872;2022-11-04T13:52:56;12.00;99.90
47350;DHT22;33088;51.982;5.872;2022-11-04T13:55:21;12.00;99.90
47350;DHT22;33088;51.982;5.872;2022-11-04T13:57:56;12.00;99.90
47350;DHT22;33088;51.982;5.872;2022-11-04T14:00:24;12.00;99.90
47350;DHT22;33088;51.982;5.872;2022-11-04T14:02:55;12.10;99.90
47350;DHT22;33088;51.982;5.872;2022-11-04T14:16:09;12.00;99.90
47350;DHT22;33088;51.982;5.872;2022-11-04T14:18:43;12.00;99.90
47350;DHT22;33088;51.982;5.872;2022-11-04T14:23:36;12.10;99.90
47350;DHT22;33088;51.982;5.872;2022-11-04T14:26:07;12.20;99.90
47350;DHT22;33088;51.982;5.872;2022-11-04T14:28:34;12.20;99.90
47350;DHT22;33088;51.982;5.872;2022-11-04T14:31:04;12.20;99.90
47350;DHT22;33088;51.982;5.872;2022-11-04T14:33:53;12.10;99.90
47350;DHT22;33088;51.982;5.872;2022-11-04T14:39:05;12.00;99.90
47350;DHT22;33088;51.982;5.872;2022-11-04T14:41:52;12.00;99.90
47350;DHT22;33088;51.982;5.872;2022-11-04T14:44:27;11.90;99.90
47350;DHT22;33088;51.982;5.872;2022-11-04T14:46:58;11.90;99.90
47350;DHT22;33088;51.982;5.872;2022-11-04T15:02:47;11.40;99.90
47350;DHT22;33088;51.982;5.872;2022-11-04T15:05:25;11.10;99.90
47350;DHT22;33088;51.982;5.872;2022-11-04T15:07:51;11.10;99.90
47350;DHT22;33088;51.982;5.872;2022-11-04T15:10:26;11.00;99.90
47350;DHT22;33088;51.982;5.872;2022-11-04T15:12:58;10.80;99.90
47350;DHT22;33088;51.982;5.872;2022-11-04T15:15:25;10.70;99.90
47350;DHT22;33088;51.982;5.872;2022-11-04T15:17:56;10.60;99.90
47350;DHT22;33088;51.982;5.872;2022-11-04T15:20:25;10.60;99.90
47350;DHT22;33088;51.982;5.872;2022-11-04T15:22:52;10.60;99.90
47350;DHT22;33088;51.982;5.872;2022-11-04T15:25:20;10.50;99.90
47350;DHT22;33088;51.982;5.872;2022-11-04T15:27:46;10.60;99.90
47350;DHT22;33088;51.982;5.872;2022-11-04T15:30:21;10.50;99.90
47350;DHT22;33088;51.982;5.872;2022-11-04T15:33:02;10.50;99.90
47350;DHT22;33088;51.982;5.872;2022-11-04T15:35:30;10.50;99.90
47350;DHT22;33088;51.982;5.872;2022-11-04T15:37:58;10.40;99.90
47350;DHT22;33088;51.982;5.872;2022-11-04T15:40:28;10.50;99.90
47350;DHT22;33088;51.982;5.872;2022-11-04T15:42:55;10.40;99.90
47350;DHT22;33088;51.982;5.872;2022-11-04T15:47:46;10.40;99.90
47350;DHT22;33088;51.982;5.872;2022-11-04T15:50:23;10.40;99.90
47350;DHT22;33088;51.982;5.872;2022-11-04T15:52:52;10.40;99.90
47350;DHT22;33088;51.982;5.872;2022-11-04T15:55:24;10.40;99.90
47350;DHT22;33088;51.982;5.872;2022-11-04T15:57:50;10.40;99.90
47350;DHT22;33088;51.982;5.872;2022-11-04T16:02:52;10.10;99.90
47350;DHT22;33088;51.982;5.872;2022-11-04T16:07:45;10.00;99.90
47350;DHT22;33088;51.982;5.872;2022-11-04T16:10:32;10.20;99.90
47350;DHT22;33088;51.982;5.872;2022-11-04T16:13:16;10.00;99.90
47350;DHT22;33088;51.982;5.872;2022-11-04T16:15:50;10.10;99.90
47350;DHT22;33088;51.982;5.872;2022-11-04T16:18:24;10.40;99.90
47350;DHT22;33088;51.982;5.872;2022-11-04T16:20:52;10.10;99.90
47350;DHT22;33088;51.982;5.872;2022-11-04T16:23:21;10.00;99.90
47350;DHT22;33088;51.982;5.872;2022-11-04T16:25:56;10.20;99.90
47350;DHT22;33088;51.982;5.872;2022-11-04T16:28:22;9.90;99.90
47350;DHT22;33088;51.982;5.872;2022-11-04T16:30:59;9.90;99.90
47350;DHT22;33088;51.982;5.872;2022-11-04T16:33:25;9.90;99.90
47350;DHT22;33088;51.982;5.872;2022-11-04T16:35:51;9.70;99.90
47350;DHT22;33088;51.982;5.872;2022-11-04T16:38:17;9.80;99.90
47350;DHT22;33088;51.982;5.872;2022-11-04T16:40:46;9.60;99.90
47350;DHT22;33088;51.982;5.872;2022-11-04T16:43:13;9.50;99.90
47350;DHT22;33088;51.982;5.872;2022-11-04T16:45:44;9.50;99.90
47350;DHT22;33088;51.982;5.872;2022-11-04T16:48:16;9.50;99.90
47350;DHT22;33088;51.982;5.872;2022-11-04T16:50:43;9.50;99.90
47350;DHT22;33088;51.982;5.872;2022-11-04T16:53:09;9.50;99.90
47350;DHT22;33088;51.982;5.872;2022-11-04T16:55:38;9.70;99.90
47350;DHT22;33088;51.982;5.872;2022-11-04T16:58:05;9.20;99.90
47350;DHT22;33088;51.982;5.872;2022-11-04T17:00:31;9.10;99.90
47350;DHT22;33088;51.982;5.872;2022-11-04T17:03:01;9.20;99.90
47350;DHT22;33088;51.982;5.872;2022-11-04T17:05:35;9.30;99.90
47350;DHT22;33088;51.982;5.872;2022-11-04T17:08:00;9.20;99.90
47350;DHT22;33088;51.982;5.872;2022-11-04T17:10:27;9.20;99.90
47350;DHT22;33088;51.982;5.872;2022-11-04T17:12:53;9.20;99.90
47350;DHT22;33088;51.982;5.872;2022-11-04T17:15:18;9.30;99.90
47350;DHT22;33088;51.982;5.872;2022-11-04T17:17:44;9.20;99.90
47350;DHT22;33088;51.982;5.872;2022-11-04T17:20:13;9.20;99.90
47350;DHT22;33088;51.982;5.872;2022-11-04T17:22:42;9.10;99.90
47350;DHT22;33088;51.982;5.872;2022-11-04T17:25:20;9.00;99.90
47350;DHT22;33088;51.982;5.872;2022-11-04T17:27:47;9.00;99.90
47350;DHT22;33088;51.982;5.872;2022-11-04T17:30:14;8.90;99.90
47350;DHT22;33088;51.982;5.872;2022-11-04T17:32:42;8.80;99.90
47350;DHT22;33088;51.982;5.872;2022-11-04T17:35:09;8.90;99.90
47350;DHT22;33088;51.982;5.872;2022-11-04T17:37:35;8.80;99.90
47350;DHT22;33088;51.982;5.872;2022-11-04T17:40:01;8.70;99.90
47350;DHT22;33088;51.982;5.872;2022-11-04T17:42:26;8.80;99.90
47350;DHT22;33088;51.982;5.872;2022-11-04T17:45:10;8.70;99.90
47350;DHT22;33088;51.982;5.872;2022-11-04T17:47:37;8.70;99.90
47350;DHT22;33088;51.982;5.872;2022-11-04T17:50:06;8.60;99.90
47350;DHT22;33088;51.982;5.872;2022-11-04T17:52:35;8.60;99.90
47350;DHT22;33088;51.982;5.872;2022-11-04T17:55:03;8.60;99.90
47350;DHT22;33088;51.982;5.872;2022-11-04T17:57:29;8.60;99.90
47350;DHT22;33088;51.982;5.872;2022-11-04T17:59:57;8.50;99.90
47350;DHT22;33088;51.982;5.872;2022-11-04T18:02:23;8.50;99.90
47350;DHT22;33088;51.982;5.872;2022-11-04T18:04:48;8.50;99.90
47350;DHT22;33088;51.982;5.872;2022-11-04T18:07:14;8.50;99.90
47350;DHT22;33088;51.982;5.872;2022-11-04T18:09:40;8.60;99.90
47350;DHT22;33088;51.982;5.872;2022-11-04T18:12:06;8.50;99.90
47350;DHT22;33088;51.982;5.872;2022-11-04T18:14:51;8.40;99.90
47350;DHT22;33088;51.982;5.872;2022-11-04T18:17:16;8.50;99.90
47350;DHT22;33088;51.982;5.872;2022-11-04T18:19:42;8.70;99.90
47350;DHT22;33088;51.982;5.872;2022-11-04T18:22:08;8.50;99.90
47350;DHT22;33088;51.982;5.872;2022-11-04T18:24:34;8.50;99.90
47350;DHT22;33088;51.982;5.872;2022-11-04T18:27:02;8.60;99.90